Data for 03/07/2009

Time Sea-Level Adjusted Pressure Absolute Pressure Temperature Relative Humidity Dew Point   
(mb) (inHg) (mb) (inHg) (C) (F) (%) (C) (F)
00:05 1015 29.97 844 24.92 -11.8 10.8 82 -14.3 6.3
00:10 1014 29.94 844 24.92 -11.4 11.4 81 -14.1 6.6
00:15 1014 29.94 844 24.92 -11.4 11.5 81 -14.1 6.7
00:20 1014 29.94 844 24.92 -11.7 10.9 82 -14.1 6.5
00:25 1014 29.94 844 24.92 -11.7 10.9 82 -14.2 6.4
00:30 1014 29.94 844 24.92 -11.6 11.2 81 -14.2 6.5
00:35 1014 29.94 844 24.92 -11.4 11.6 80 -14.2 6.4
00:40 1014 29.94 844 24.92 -11.3 11.7 84 -13.4 7.9
00:45 1014 29.94 844 24.92 -11.2 11.8 84 -13.3 8
00:50 1014 29.94 843 24.89 -11.2 11.8 84 -13.4 8
00:55 1014 29.94 843 24.89 -10.8 12.6 85 -12.8 8.9
01:00 1014 29.94 843 24.89 -10.9 12.5 83 -13.1 8.4
01:05 1014 29.94 843 24.89 -11.1 12.1 83 -13.4 7.9
01:10 1014 29.94 843 24.89 -11 12.2 82 -13.4 7.8
01:15 1014 29.94 843 24.89 -10.8 12.5 81 -13.5 7.7
01:20 1014 29.94 843 24.89 -11.1 11.9 82 -13.7 7.3
01:25 1014 29.94 843 24.89 -11 12.3 81 -13.7 7.4
01:30 1014 29.94 843 24.89 -11.1 12 83 -13.5 7.7
01:35 1014 29.94 843 24.89 -11 12.2 80 -13.9 7
01:40 1014 29.94 843 24.89 -11.1 11.9 79 -14.1 6.5
01:45 1014 29.94 843 24.89 -11.2 11.8 78 -14.3 6.2
01:50 1014 29.94 843 24.89 -11.3 11.6 78 -14.5 5.9
01:55 1014 29.94 843 24.89 -11.4 11.5 79 -14.3 6.2
02:00 1014 29.94 843 24.89 -11.3 11.7 79 -14.3 6.2
02:05 1014 29.94 843 24.89 -12.1 10.2 82 -14.5 5.8
02:10 1014 29.94 843 24.89 -12.3 9.9 83 -14.5 5.8
02:15 1014 29.94 843 24.89 -12.1 10.2 83 -14.4 6
02:20 1014 29.94 843 24.89 -12 10.5 82 -14.5 5.9
02:25 1014 29.94 843 24.89 -11.8 10.7 82 -14.4 6.1
02:30 1014 29.94 843 24.89 -12 10.4 84 -14.1 6.6
02:35 1014 29.94 843 24.89 -12 10.4 84 -14.2 6.4
02:40 1013 29.91 843 24.89 -12.2 10.1 83 -14.5 5.9
02:45 1013 29.91 843 24.89 -12 10.3 84 -14.3 6.3
02:50 1013 29.91 843 24.89 -12 10.4 82 -14.4 6.1
02:55 1013 29.91 842 24.86 -12 10.3 81 -14.6 5.7
03:00 1013 29.91 842 24.86 -12.4 9.7 82 -14.9 5.2
03:05 1013 29.91 842 24.86 -13.1 8.5 85 -15.1 4.7
03:10 1013 29.91 842 24.86 -13.4 7.9 89 -14.9 5.2
03:15 1013 29.91 842 24.86 -13.1 8.4 89 -14.6 5.7
03:20 1013 29.91 842 24.86 -12.4 9.8 86 -14.2 6.4
03:25 1013 29.91 842 24.86 -12 10.5 86 -13.8 7.1
03:30 1013 29.91 842 24.86 -11.6 11.1 84 -13.9 7
03:35 1013 29.91 842 24.86 -11.5 11.2 81 -14.2 6.5
03:40 1013 29.91 842 24.86 -11 12.1 80 -13.8 7.2
03:45 1013 29.91 842 24.86 -10.9 12.4 84 -13.1 8.4
03:50 1013 29.91 842 24.86 -10.8 12.6 81 -13.4 7.8
03:55 1013 29.91 842 24.86 -11 12.2 82 -13.5 7.7
04:00 1013 29.91 842 24.86 -11.2 11.9 79 -14.2 6.5
04:05 1013 29.91 842 24.86 -10.9 12.5 79 -13.9 7
04:10 1013 29.91 842 24.86 -10.6 12.9 79 -13.6 7.6
04:15 1013 29.91 842 24.86 -10.5 13.1 79 -13.5 7.7
04:20 1013 29.91 842 24.86 -10.7 12.7 81 -13.4 7.9
04:25 1013 29.91 842 24.86 -10.6 13 80 -13.5 7.8
04:30 1013 29.91 842 24.86 -11.1 12 78 -14.1 6.5
04:35 1013 29.91 842 24.86 -11.2 11.9 83 -13.5 7.6
04:40 1013 29.91 842 24.86 -11.3 11.7 83 -13.6 7.6
04:45 1013 29.91 842 24.86 -11.2 11.8 80 -14 6.8
04:50 1013 29.91 842 24.86 -11.3 11.6 80 -14.1 6.7
04:55 1013 29.91 842 24.86 -11.5 11.3 79 -14.5 5.9
05:00 1013 29.91 842 24.86 -11.6 11.2 77 -14.9 5.3
05:05 1013 29.91 842 24.86 -11.2 11.9 76 -14.6 5.8
05:10 1012 29.88 842 24.86 -11.3 11.7 78 -14.3 6.2
05:15 1012 29.88 842 24.86 -11.5 11.3 80 -14.3 6.3
05:20 1012 29.88 842 24.86 -11.5 11.3 83 -13.9 7
05:25 1012 29.88 842 24.86 -11.4 11.5 84 -13.6 7.5
05:30 1012 29.88 841 24.83 -11.2 11.8 81 -13.9 7
05:35 1012 29.88 841 24.83 -11.4 11.5 83 -13.8 7.2
05:40 1012 29.88 841 24.83 -11.4 11.4 82 -13.9 6.9
05:45 1012 29.88 841 24.83 -11.4 11.5 79 -14.4 6.1
05:50 1012 29.88 841 24.83 -11.6 11 79 -14.6 5.8
05:55 1012 29.88 841 24.83 -11.8 10.8 81 -14.4 6.1
06:00 1012 29.88 841 24.83 -11.9 10.6 79 -14.9 5.2
06:05 1012 29.88 841 24.83 -12 10.4 80 -14.8 5.3
06:10 1012 29.88 841 24.83 -11.9 10.6 79 -14.9 5.2
06:15 1012 29.88 841 24.83 -12 10.5 79 -14.9 5.1
06:20 1012 29.88 841 24.83 -12 10.4 79 -15 5.1
06:25 1012 29.88 841 24.83 -11.9 10.6 85 -13.9 7
06:30 1012 29.88 841 24.83 -11.3 11.7 77 -14.5 5.9
06:35 1012 29.88 841 24.83 -11.4 11.5 78 -14.5 6
06:40 1012 29.88 841 24.83 -11.5 11.4 77 -14.6 5.6
06:45 1012 29.88 841 24.83 -11.5 11.3 79 -14.5 6
06:50 1012 29.88 841 24.83 -11.6 11.1 79 -14.6 5.8
06:55 1011 29.85 841 24.83 -11.5 11.3 78 -14.6 5.8
07:00 1011 29.85 841 24.83 -11.6 11.2 80 -14.3 6.2
07:05 1011 29.85 841 24.83 -11.6 11.2 79 -14.6 5.7
07:10 1011 29.85 841 24.83 -11.7 11 78 -14.7 5.5
07:15 1011 29.85 841 24.83 -11.7 11 78 -14.7 5.5
07:20 1011 29.85 841 24.83 -11.6 11.1 77 -15 5.1
07:25 1011 29.85 841 24.83 -11.4 11.5 78 -14.5 5.9
07:30 1011 29.85 841 24.83 -11.3 11.7 75 -14.9 5.2
07:35 1011 29.85 841 24.83 -11.2 11.8 75 -14.8 5.3
07:40 1012 29.88 841 24.83 -11.1 12.1 75 -14.7 5.6
07:45 1012 29.88 841 24.83 -10.6 12.9 72 -14.8 5.4
07:50 1012 29.88 841 24.83 -10.5 13.1 73 -14.4 6
07:55 1012 29.88 841 24.83 -10.2 13.6 70 -14.7 5.5
08:00 1012 29.88 841 24.83 -9.6 14.6 69 -14.4 6.1
08:05 1012 29.88 841 24.83 -9.6 14.7 69 -14.2 6.4
08:10 1012 29.88 841 24.83 -9.7 14.6 70 -14.2 6.5
08:15 1012 29.88 841 24.83 -9.4 15 71 -13.7 7.3
08:20 1012 29.88 841 24.83 -8.8 16.2 69 -13.6 7.6
08:25 1011 29.85 841 24.83 -8.4 16.9 68 -13.2 8.2
08:30 1011 29.85 841 24.83 -7.9 17.9 67 -12.9 8.8
08:35 1011 29.85 841 24.83 -7.5 18.5 67 -12.7 9.2
08:40 1011 29.85 841 24.83 -6.9 19.5 63 -12.8 9
08:45 1011 29.85 840 24.81 -6.4 20.4 62 -12.6 9.4
08:50 1011 29.85 840 24.81 -5.8 21.6 59 -12.6 9.4
08:55 1011 29.85 840 24.81 -5.7 21.7 60 -12.2 10
09:00 1011 29.85 840 24.81 -5.1 22.8 58 -12.2 10.1
09:05 1011 29.85 840 24.81 -4.2 24.4 56 -11.7 11
09:10 1011 29.85 840 24.81 -3.6 25.6 54 -11.7 11
09:15 1011 29.85 840 24.81 -3.6 25.5 54 -11.5 11.2
09:20 1011 29.85 840 24.81 -4.1 24.6 55 -11.9 10.6
09:25 1011 29.85 840 24.81 -4.3 24.3 57 -11.6 11.1
09:30 1011 29.85 840 24.81 -4.1 24.7 55 -11.8 10.7
09:35 1011 29.85 840 24.81 -3.8 25.1 56 -11.3 11.6
09:40 1011 29.85 840 24.81 -4.3 24.2 59 -11.3 11.7
09:45 1011 29.85 840 24.81 -4.5 23.9 59 -11.4 11.5
09:50 1011 29.85 841 24.83 -3.8 25.1 55 -11.5 11.3
09:55 1011 29.85 841 24.83 -3.1 26.4 54 -11.1 12
10:00 1012 29.88 841 24.83 -3.6 25.5 57 -11 12.3
10:05 1012 29.88 841 24.83 -3.5 25.6 53 -11.7 10.9
10:10 1012 29.88 841 24.83 -3.4 25.9 55 -11.3 11.7
10:15 1012 29.88 841 24.83 -3.5 25.7 55 -11.2 11.8
10:20 1012 29.88 841 24.83 -2.9 26.8 53 -11.2 11.9
10:25 1012 29.88 841 24.83 -2.9 26.7 52 -11.5 11.4
10:30 1012 29.88 841 24.83 -3.1 26.5 54 -11 12.1
10:35 1012 29.88 841 24.83 -3.2 26.2 55 -10.9 12.3
10:40 1012 29.88 841 24.83 -3.3 26 53 -11.5 11.3
10:45 1012 29.88 841 24.83 -2.9 26.9 53 -11.1 12.1
10:50 1012 29.88 841 24.83 -2.6 27.3 50 -11.6 11
10:55 1012 29.88 841 24.83 -2.4 27.7 50 -11.5 11.3
11:00 1012 29.88 841 24.83 -2.2 28.1 51 -10.9 12.3
11:05 1012 29.88 841 24.83 -2.4 27.6 50 -11.5 11.3
11:10 1012 29.88 841 24.83 -2.4 27.6 54 -10.6 12.9
11:15 1012 29.88 841 24.83 -2.9 26.7 53 -11.2 11.9
11:20 1012 29.88 841 24.83 -2.9 26.8 53 -11.2 11.8
11:25 1012 29.88 841 24.83 -3.3 26.1 55 -11.2 11.9
11:30 1012 29.88 841 24.83 -3.7 25.4 58 -10.8 12.6
11:35 1012 29.88 841 24.83 -4.8 23.3 61 -11.2 11.8
11:40 1012 29.88 841 24.83 -5.3 22.4 64 -11.2 11.9
11:45 1012 29.88 841 24.83 -5.2 22.6 61 -11.7 10.9
11:50 1011 29.85 841 24.83 -4.9 23.3 63 -10.9 12.4
11:55 1011 29.85 841 24.83 -4.4 24 60 -11.1 12.1
12:00 1011 29.85 840 24.81 -4.6 23.8 60 -11.1 12
12:05 1011 29.85 840 24.81 -4 24.8 58 -11.2 11.9
12:10 1011 29.85 840 24.81 -2.8 26.9 53 -11.2 11.9
12:15 1011 29.85 840 24.81 -2.8 26.9 54 -10.8 12.5
12:20 1011 29.85 840 24.81 -1.8 28.7 50 -11 12.2
12:25 1011 29.85 840 24.81 -0.9 30.4 48 -10.5 13.1
12:30 1011 29.85 840 24.81 -1.8 28.8 54 -10 14.1
12:35 1011 29.85 840 24.81 -2 28.4 50 -11 12.1
12:40 1011 29.85 840 24.81 -0.8 30.5 48 -10.5 13.2
12:45 1010 29.83 840 24.81 0.1 32.2 43 -11.1 12.1
12:50 1010 29.83 840 24.81 0.6 33 44 -10.5 13.2
12:55 1010 29.83 839 24.78 0.3 32.5 45 -10.2 13.6
13:00 1010 29.83 839 24.78 0.3 32.5 45 -10.2 13.6
13:05 1010 29.83 839 24.78 0.1 32.2 46 -10.2 13.7
13:10 1010 29.83 839 24.78 0.1 32.2 44 -10.7 12.8
13:15 1010 29.83 839 24.78 -0 32 45 -10.5 13.1
13:20 1010 29.83 839 24.78 0.1 32.3 48 -9.7 14.5
13:25 1010 29.83 839 24.78 0.2 32.4 45 -10.3 13.4
13:30 1010 29.83 839 24.78 0.4 32.7 43 -10.7 12.7
13:35 1010 29.83 839 24.78 0.9 33.6 43 -10.2 13.6
13:40 1010 29.83 839 24.78 1.4 34.6 42 -10 14
13:45 1010 29.83 839 24.78 1.5 34.7 43 -9.7 14.6
13:50 1010 29.83 839 24.78 1.9 35.3 42 -9.8 14.4
13:55 1010 29.83 839 24.78 1.6 34.9 44 -9.4 15.1
14:00 1009 29.8 839 24.78 0.7 33.2 49 -8.8 16.1
14:05 1009 29.8 838 24.75 -0.8 30.6 51 -9.7 14.6
14:10 1009 29.8 838 24.75 -1 30.2 51 -10 14
14:15 1009 29.8 838 24.75 -1.5 29.4 51 -10.3 13.4
14:20 1009 29.8 838 24.75 -0.6 30.8 44 -11.4 11.4
14:25 1009 29.8 838 24.75 -0 31.9 42 -11.6 11.1
14:30 1009 29.8 838 24.75 0.3 32.5 42 -11.3 11.7
14:35 1009 29.8 838 24.75 1.2 34.1 40 -11 12.2
14:40 1009 29.8 838 24.75 1.1 34 40 -11.2 11.9
14:45 1009 29.8 838 24.75 1.8 35.3 36 -11.7 11
14:50 1009 29.8 838 24.75 2 35.7 37 -11.2 11.9
14:55 1009 29.8 838 24.75 2.1 35.7 38 -10.7 12.8
15:00 1008 29.77 838 24.75 1.5 34.7 41 -10.5 13.1
15:05 1008 29.77 838 24.75 1.4 34.5 40 -10.7 12.7
15:10 1008 29.77 837 24.72 2.4 36.3 35 -11.5 11.3
15:15 1008 29.77 837 24.72 3.6 38.4 35 -10.6 12.9
15:20 1008 29.77 837 24.72 3.7 38.6 32 -11.4 11.5
15:25 1008 29.77 837 24.72 3.7 38.6 33 -11.2 11.9
15:30 1008 29.77 837 24.72 4.6 40.2 32 -10.8 12.6
15:35 1008 29.77 837 24.72 3.6 38.4 35 -10.4 13.3
15:40 1008 29.77 837 24.72 3.4 38.1 36 -10.3 13.5
15:45 1008 29.77 837 24.72 2.6 36.7 40 -9.6 14.7
15:50 1008 29.77 837 24.72 2.5 36.5 38 -10.3 13.4
15:55 1008 29.77 837 24.72 2.5 36.5 38 -10.3 13.5
16:00 1008 29.77 837 24.72 2.5 36.4 36 -11 12.2
16:05 1008 29.77 837 24.72 3 37.4 35 -10.9 12.4
16:10 1008 29.77 837 24.72 3.5 38.3 33 -11.5 11.4
16:15 1008 29.77 837 24.72 3.4 38 34 -11.1 12.1
16:20 1008 29.77 837 24.72 3.7 38.7 33 -11.3 11.6
16:25 1008 29.77 837 24.72 3.8 38.8 31 -11.8 10.8
16:30 1008 29.77 837 24.72 3.6 38.5 32 -11.5 11.3
16:35 1008 29.77 837 24.72 3 37.3 34 -11.3 11.7
16:40 1008 29.77 837 24.72 3.2 37.8 34 -11.2 11.9
16:45 1008 29.77 837 24.72 3.3 37.9 33 -11.4 11.4
16:50 1008 29.77 837 24.72 2.9 37.3 36 -10.9 12.4
16:55 1008 29.77 837 24.72 3.6 38.6 34 -10.9 12.4
17:00 1008 29.77 837 24.72 3.6 38.5 35 -10.6 12.9
17:05 1008 29.77 837 24.72 3.3 38 36 -10.3 13.5
17:10 1007 29.74 837 24.72 3.5 38.3 37 -9.9 14.3
17:15 1007 29.74 837 24.72 2.3 36.2 41 -9.7 14.5
17:20 1007 29.74 837 24.72 2.2 35.9 41 -9.9 14.1
17:25 1007 29.74 837 24.72 2.1 35.7 40 -10.3 13.4
17:30 1007 29.74 837 24.72 1.7 35 39 -10.9 12.4
17:35 1008 29.77 837 24.72 1.8 35.3 41 -10.2 13.6
17:40 1008 29.77 837 24.72 2 35.6 39 -10.6 12.8
17:45 1008 29.77 837 24.72 2.2 36 38 -10.6 12.9
17:50 1008 29.77 837 24.72 2 35.5 40 -10.4 13.3
17:55 1008 29.77 837 24.72 1.2 34.1 42 -10.5 13
18:00 1008 29.77 837 24.72 1.2 34.1 42 -10.3 13.4
18:05 1008 29.77 837 24.72 1.1 34.1 43 -10 13.9
18:10 1008 29.77 837 24.72 0.7 33.2 45 -10 14.1
18:15 1008 29.77 837 24.72 0.3 32.5 46 -10.1 13.7
18:20 1008 29.77 837 24.72 -0.1 31.9 45 -10.5 13
18:25 1008 29.77 837 24.72 -0.1 31.7 47 -10.3 13.5
18:30 1008 29.77 837 24.72 -0.8 30.6 51 -9.7 14.6
18:35 1008 29.77 837 24.72 -1.2 29.8 52 -9.8 14.3
18:40 1008 29.77 837 24.72 -1.5 29.4 52 -10.1 13.8
18:45 1007 29.74 837 24.72 -1.4 29.4 53 -9.8 14.3
18:50 1008 29.77 837 24.72 -1.8 28.7 55 -9.7 14.5
18:55 1007 29.74 837 24.72 -1.8 28.7 55 -9.6 14.7
19:00 1007 29.74 837 24.72 -1.8 28.7 55 -9.7 14.5
19:05 1007 29.74 837 24.72 -1.9 28.6 56 -9.5 14.9
19:10 1008 29.77 837 24.72 -2.1 28.2 56 -9.8 14.3
19:15 1008 29.77 837 24.72 -2.1 28.1 59 -9.2 15.5
19:20 1008 29.77 837 24.72 -2.2 28 60 -8.9 16
19:25 1008 29.77 837 24.72 -2.1 28.2 60 -8.8 16.1
19:30 1008 29.77 837 24.72 -2.3 27.9 62 -8.6 16.5
19:35 1008 29.77 837 24.72 -2.5 27.5 63 -8.6 16.6
19:40 1008 29.77 837 24.72 -2.7 27.1 64 -8.7 16.4
19:45 1008 29.77 837 24.72 -2.8 26.9 65 -8.6 16.6
19:50 1008 29.77 837 24.72 -2.8 27 64 -8.7 16.3
19:55 1008 29.77 837 24.72 -2.8 26.9 64 -8.7 16.3
20:00 1008 29.77 837 24.72 -2.9 26.8 63 -8.9 16
20:05 1008 29.77 837 24.72 -2.9 26.7 62 -9.3 15.3
20:10 1008 29.77 837 24.72 -3 26.6 63 -9 15.8
20:15 1008 29.77 837 24.72 -3.1 26.5 63 -9.2 15.5
20:20 1008 29.77 837 24.72 -3.1 26.5 63 -9.2 15.4
20:25 1008 29.77 837 24.72 -3.1 26.4 62 -9.3 15.3
20:30 1008 29.77 837 24.72 -3.2 26.2 63 -9.2 15.4
20:35 1008 29.77 837 24.72 -3.3 26 64 -9.1 15.5
20:40 1008 29.77 837 24.72 -3.5 25.7 65 -9.1 15.5
20:45 1008 29.77 837 24.72 -3.5 25.8 64 -9.4 15.1
20:50 1008 29.77 837 24.72 -3.4 25.8 63 -9.6 14.7
20:55 1008 29.77 837 24.72 -3.5 25.7 62 -9.7 14.5
21:00 1008 29.77 837 24.72 -3.6 25.5 63 -9.7 14.5
21:05 1008 29.77 837 24.72 -3.7 25.3 62 -10 14
21:10 1008 29.77 837 24.72 -3.7 25.4 62 -10 14
21:15 1008 29.77 837 24.72 -3.9 25.1 62 -10.1 13.8
21:20 1008 29.77 837 24.72 -4 24.7 62 -10.3 13.5
21:25 1008 29.77 837 24.72 -4.2 24.4 61 -10.6 12.9
21:30 1008 29.77 837 24.72 -4.2 24.4 61 -10.5 13
21:35 1008 29.77 837 24.72 -4.2 24.4 61 -10.8 12.6
21:40 1008 29.77 837 24.72 -4.2 24.4 60 -10.9 12.4
21:45 1008 29.77 837 24.72 -4.1 24.5 60 -10.9 12.4
21:50 1008 29.77 837 24.72 -4.2 24.5 61 -10.7 12.7
21:55 1008 29.77 837 24.72 -4.3 24.3 61 -10.6 12.9
22:00 1008 29.77 837 24.72 -4.3 24.3 60 -10.9 12.3
22:05 1008 29.77 837 24.72 -4.2 24.5 56 -11.6 11.1
22:10 1008 29.77 837 24.72 -3.3 26.1 57 -10.5 13
22:15 1008 29.77 837 24.72 -3.8 25.1 59 -10.7 12.8
22:20 1008 29.77 837 24.72 -3.9 25 58 -11 12.2
22:25 1008 29.77 837 24.72 -3.6 25.5 56 -11.3 11.7
22:30 1008 29.77 837 24.72 -3.3 26 54 -11.3 11.6
22:35 1008 29.77 837 24.72 -3.1 26.5 53 -11.4 11.6
22:40 1008 29.77 837 24.72 -2.3 27.8 49 -11.7 10.9
22:45 1008 29.77 837 24.72 -1.5 29.2 45 -11.9 10.6
22:50 1008 29.77 837 24.72 -1.3 29.7 45 -11.8 10.7
22:55 1008 29.77 837 24.72 -1.3 29.7 44 -12.1 10.2
23:00 1008 29.77 837 24.72 -1.6 29.1 43 -12.6 9.2
23:05 1008 29.77 837 24.72 -1.4 29.5 41 -12.9 8.7
23:10 1008 29.77 837 24.72 -1.3 29.7 40 -13.2 8.2
23:15 1008 29.77 837 24.72 -1.4 29.5 42 -12.7 9.1
23:20 1008 29.77 837 24.72 -1.4 29.6 41 -13.1 8.4
23:25 1008 29.77 837 24.72 -1.4 29.6 41 -13 8.5
23:30 1008 29.77 837 24.72 -1.5 29.3 41 -13 8.5
23:35 1008 29.77 837 24.72 -1.7 29 41 -13.2 8.2
23:40 1008 29.77 837 24.72 -1.2 29.8 40 -13.1 8.3
23:45 1008 29.77 837 24.72 -1.6 29.1 44 -12.5 9.5
23:50 1008 29.77 837 24.72 -2 28.3 44 -12.9 8.8
23:55 1008 29.77 837 24.72 -1.9 28.5 44 -12.7 9.1
24:00 1008 29.77 837 24.72 -2 28.4 43 -13.1 8.4